Chitral Weather



Chitral's Current Weather

Temprature 20.96o clear sky

clear sky

Rain: 0 %

Min Temprature20.96o
Max Temprature20.96o
Humidity41
Wind Speed0.73 m/h
Sun Rise06:03:30
Sun Set18:05:06
Current Time: 26-Sep-2022 08:18:59
Lat/Lon: 35.8462, 71.7858




Chitral's Geo Location



Chitral's Weather Forecast

Time Overall Temp Min Temp Max Temp Humidity Wind Speed Rain
26-Sep-2022 (Mon)
11:00:00 clear sky 22.250 22.250 24.840 37 1.47 m/h 0 %
14:00:00 clear sky 25.040 25.040 27.080 31 2.85 m/h 0 %
17:00:00 clear sky 26.110 26.110 26.110 33 3.24 m/h 0 %
20:00:00 clear sky 22.700 22.700 22.700 54 1.6 m/h 0 %
23:00:00 clear sky 21.540 21.540 21.540 55 1.16 m/h 0 %
27-Sep-2022 (Tue)
02:00:00 clear sky 20.410 20.410 20.410 44 2.71 m/h 0 %
05:00:00 clear sky 19.110 19.110 19.110 41 3 m/h 0 %
08:00:00 clear sky 22.010 22.010 22.010 30 2.16 m/h 0 %
11:00:00 clear sky 25.940 25.940 25.940 21 1.22 m/h 0 %
14:00:00 clear sky 28.010 28.010 28.010 21 3.56 m/h 0 %
17:00:00 clear sky 26.020 26.020 26.020 31 4.45 m/h 0 %
20:00:00 light rain 22.140 22.140 22.140 61 2.26 m/h 22 %
23:00:00 light rain 20.530 20.530 20.530 69 1.69 m/h 46 %
28-Sep-2022 (Wed)
02:00:00 light rain 19.610 19.610 19.610 67 0.73 m/h 19 %
05:00:00 clear sky 18.650 18.650 18.650 62 0.86 m/h 0 %
08:00:00 light rain 20.680 20.680 20.680 49 0.71 m/h 16 %
11:00:00 light rain 24.010 24.010 24.010 38 2.4 m/h 21 %
14:00:00 light rain 25.800 25.800 25.800 38 4.27 m/h 14 %
17:00:00 light rain 23.910 23.910 23.910 51 4.35 m/h 61 %
20:00:00 light rain 21.090 21.090 21.090 64 2.18 m/h 99 %
23:00:00 light rain 19.860 19.860 19.860 65 1.28 m/h 29 %
29-Sep-2022 (Thu)
02:00:00 clear sky 18.720 18.720 18.720 62 0.48 m/h 0 %
05:00:00 clear sky 17.630 17.630 17.630 55 0.69 m/h 0 %
08:00:00 clear sky 20.060 20.060 20.060 39 0.4 m/h 0 %
11:00:00 clear sky 23.670 23.670 23.670 27 2.05 m/h 0 %
14:00:00 clear sky 25.770 25.770 25.770 25 3.09 m/h 0 %
17:00:00 clear sky 24.630 24.630 24.630 36 4.23 m/h 0 %
20:00:00 clear sky 21.170 21.170 21.170 66 2.6 m/h 0 %
23:00:00 clear sky 19.610 19.610 19.610 76 1.29 m/h 0 %
30-Sep-2022 (Fri)
02:00:00 clear sky 18.770 18.770 18.770 73 0.11 m/h 0 %
05:00:00 clear sky 18.190 18.190 18.190 60 0.96 m/h 0 %
08:00:00 clear sky 20.810 20.810 20.810 43 0.31 m/h 0 %
11:00:00 clear sky 24.520 24.520 24.520 31 2.53 m/h 0 %
14:00:00 clear sky 26.400 26.400 26.400 31 3.73 m/h 0 %
17:00:00 clear sky 24.910 24.910 24.910 44 4.2 m/h 0 %
20:00:00 light rain 21.470 21.470 21.470 67 2.14 m/h 46 %
23:00:00 light rain 20.050 20.050 20.050 68 0.92 m/h 31 %
01-Oct-2022 (Sat)
02:00:00 clear sky 18.750 18.750 18.750 67 0.66 m/h 0 %
05:00:00 clear sky 17.800 17.800 17.800 62 1.04 m/h 0 %
08:00:00 clear sky 20.240 20.240 20.240 42 0.77 m/h 0 %

Famous Cities (61)